KLM3993 YSSY-YPPH
Flight info
| Callsign | KLM3993 |
|---|---|
| Flight time | N/A |
| Altitude | 38000 |
| Route | KADOM1/34L KADOM H44 AD Q33 ESP Q158 PH |
| Aircraft | B78X/H-SDE1E2E3FGHIJ2J3J4J5M1RWXY/LB1D1 |
Departure
| Time | 2026-05-04 05:07 |
|---|---|
| Airport | Sydney Kingsford Smith International Airport (YSSY) |
Arrival
| Time | N/A |
|---|---|
| Airport | Perth International Airport (YPPH) |
| Time | Latitude | Longitude | Altitude | Speed | Heading |
|---|---|---|---|---|---|
| 2026-05-04 04:34 | -33.93792 | 151.16964 | 27 ft | 0 kts | 255° |
| 2026-05-04 04:55 | -33.93792 | 151.16966 | 27 ft | 2 kts | 255° |
| 2026-05-04 04:55 | -33.93787 | 151.16984 | 26 ft | 2 kts | 250° |
| 2026-05-04 04:55 | -33.93780 | 151.17003 | 27 ft | 2 kts | 242° |
| 2026-05-04 04:56 | -33.93772 | 151.17020 | 25 ft | 2 kts | 230° |
| 2026-05-04 04:56 | -33.93760 | 151.17033 | 25 ft | 2 kts | 209° |
| 2026-05-04 04:56 | -33.93745 | 151.17041 | 25 ft | 2 kts | 185° |
| 2026-05-04 04:56 | -33.93729 | 151.17041 | 25 ft | 2 kts | 169° |
| 2026-05-04 04:57 | -33.93725 | 151.17040 | 26 ft | 0 kts | 167° |
| 2026-05-04 05:01 | -33.93731 | 151.17041 | 26 ft | 5 kts | 167° |
| 2026-05-04 05:01 | -33.93796 | 151.17058 | 26 ft | 14 kts | 169° |
| 2026-05-04 05:02 | -33.93919 | 151.17089 | 26 ft | 23 kts | 167° |
| 2026-05-04 05:02 | -33.94013 | 151.17223 | 28 ft | 22 kts | 141° |
| 2026-05-04 05:02 | -33.94181 | 151.17277 | 27 ft | 29 kts | 167° |
| 2026-05-04 05:02 | -33.94399 | 151.17338 | 32 ft | 35 kts | 166° |
| 2026-05-04 05:03 | -33.94664 | 151.17406 | 32 ft | 42 kts | 166° |
| 2026-05-04 05:03 | -33.94984 | 151.17487 | 29 ft | 50 kts | 167° |
| 2026-05-04 05:04 | -33.96045 | 151.17763 | 30 ft | 53 kts | 168° |
| 2026-05-04 05:04 | -33.96355 | 151.17841 | 29 ft | 31 kts | 168° |
| 2026-05-04 05:04 | -33.96435 | 151.17910 | 29 ft | 0 kts | 101° |
| 2026-05-04 05:06 | -33.96203 | 151.18010 | 26 ft | 44 kts | 348° |
| 2026-05-04 05:06 | -33.95666 | 151.17869 | 28 ft | 112 kts | 348° |
| 2026-05-04 05:06 | -33.94715 | 151.17623 | 29 ft | 170 kts | 349° |
| 2026-05-04 05:07 | -33.93456 | 151.17294 | 411 ft | 193 kts | 348° |
| 2026-05-04 05:07 | -33.92146 | 151.16879 | 1291 ft | 193 kts | 345° |
| 2026-05-04 05:07 | -33.90833 | 151.16217 | 1551 ft | 228 kts | 316° |
| 2026-05-04 05:09 | -33.86596 | 151.01647 | 4939 ft | 246 kts | 292° |
| 2026-05-04 05:09 | -33.86052 | 150.99702 | 4992 ft | 250 kts | 287° |
| 2026-05-04 05:10 | -33.85626 | 150.97653 | 5476 ft | 251 kts | 286° |
| 2026-05-04 05:10 | -33.85210 | 150.95610 | 6500 ft | 250 kts | 287° |
| 2026-05-04 05:10 | -33.84780 | 150.93584 | 7382 ft | 254 kts | 287° |
| 2026-05-04 05:10 | -33.84335 | 150.91510 | 8257 ft | 258 kts | 287° |
| 2026-05-04 05:11 | -33.83884 | 150.89393 | 9106 ft | 263 kts | 288° |
| 2026-05-04 05:11 | -33.83426 | 150.87234 | 9938 ft | 268 kts | 288° |
| 2026-05-04 05:11 | -33.82960 | 150.85050 | 10724 ft | 271 kts | 288° |
| 2026-05-04 05:11 | -33.82495 | 150.82867 | 11512 ft | 273 kts | 288° |
| 2026-05-04 05:12 | -33.82019 | 150.80637 | 12332 ft | 276 kts | 288° |
| 2026-05-04 05:12 | -33.81530 | 150.78353 | 12888 ft | 289 kts | 288° |
| 2026-05-04 05:12 | -33.81011 | 150.75938 | 13253 ft | 307 kts | 287° |
| 2026-05-04 05:12 | -33.80465 | 150.73385 | 13603 ft | 326 kts | 287° |
| 2026-05-04 05:13 | -33.79882 | 150.70663 | 13971 ft | 342 kts | 287° |
| 2026-05-04 05:13 | -33.79290 | 150.67896 | 14604 ft | 348 kts | 287° |
| 2026-05-04 05:13 | -33.78678 | 150.65041 | 15304 ft | 352 kts | 287° |
| 2026-05-04 05:13 | -33.78066 | 150.62202 | 16003 ft | 355 kts | 287° |
| 2026-05-04 05:14 | -33.77440 | 150.59298 | 16709 ft | 359 kts | 287° |
| 2026-05-04 05:14 | -33.76813 | 150.56382 | 17403 ft | 362 kts | 287° |
| 2026-05-04 05:14 | -33.76195 | 150.53521 | 18057 ft | 365 kts | 287° |
| 2026-05-04 05:14 | -33.75535 | 150.50473 | 18711 ft | 369 kts | 287° |
| 2026-05-04 05:15 | -33.74898 | 150.47531 | 19149 ft | 376 kts | 287° |
| 2026-05-04 05:15 | -33.74220 | 150.44409 | 19342 ft | 391 kts | 287° |
| 2026-05-04 05:15 | -33.73527 | 150.41215 | 19423 ft | 407 kts | 287° |
| 2026-05-04 05:15 | -33.72794 | 150.37842 | 19537 ft | 422 kts | 287° |
| 2026-05-04 05:16 | -33.72054 | 150.34430 | 19798 ft | 429 kts | 287° |
| 2026-05-04 05:16 | -33.71462 | 150.30875 | 20222 ft | 436 kts | 279° |
| 2026-05-04 05:16 | -33.71350 | 150.27257 | 20680 ft | 443 kts | 271° |
| 2026-05-04 05:16 | -33.71649 | 150.23546 | 21135 ft | 446 kts | 268° |
| 2026-05-04 05:17 | -33.71965 | 150.19817 | 21601 ft | 449 kts | 268° |
| 2026-05-04 05:17 | -33.72293 | 150.16098 | 22072 ft | 451 kts | 268° |
| 2026-05-04 05:17 | -33.72626 | 150.12342 | 22530 ft | 453 kts | 268° |
| 2026-05-04 05:17 | -33.72952 | 150.08553 | 22938 ft | 454 kts | 268° |
| 2026-05-04 05:18 | -33.73272 | 150.04810 | 23355 ft | 456 kts | 268° |
| 2026-05-04 05:18 | -33.73599 | 150.01008 | 23724 ft | 458 kts | 268° |
| 2026-05-04 05:18 | -33.73929 | 149.97189 | 24047 ft | 460 kts | 268° |
| 2026-05-04 05:18 | -33.74257 | 149.93337 | 24371 ft | 462 kts | 268° |
| 2026-05-04 05:19 | -33.74580 | 149.89533 | 24675 ft | 464 kts | 268° |
| 2026-05-04 05:19 | -33.74910 | 149.85647 | 25003 ft | 466 kts | 269° |
| 2026-05-04 05:19 | -33.75240 | 149.81741 | 25329 ft | 467 kts | 269° |
| 2026-05-04 05:19 | -33.75562 | 149.77916 | 25796 ft | 466 kts | 269° |
| 2026-05-04 05:20 | -33.75888 | 149.74027 | 26241 ft | 465 kts | 269° |
| 2026-05-04 05:20 | -33.76211 | 149.70149 | 26689 ft | 465 kts | 269° |
| 2026-05-04 05:20 | -33.76533 | 149.66275 | 27139 ft | 464 kts | 269° |
| 2026-05-04 05:20 | -33.76850 | 149.62452 | 27622 ft | 463 kts | 269° |
| 2026-05-04 05:21 | -33.77256 | 149.58589 | 28100 ft | 465 kts | 264° |
| 2026-05-04 05:21 | -33.77853 | 149.54770 | 28588 ft | 464 kts | 265° |
| 2026-05-04 05:21 | -33.78402 | 149.51004 | 29099 ft | 463 kts | 265° |
| 2026-05-04 05:21 | -33.78963 | 149.47176 | 29619 ft | 463 kts | 265° |
| 2026-05-04 05:22 | -33.79540 | 149.43360 | 30109 ft | 462 kts | 264° |
| 2026-05-04 05:22 | -33.80108 | 149.39596 | 30556 ft | 460 kts | 265° |
| 2026-05-04 05:22 | -33.80670 | 149.35806 | 31031 ft | 458 kts | 265° |
| 2026-05-04 05:22 | -33.81224 | 149.32044 | 31546 ft | 455 kts | 265° |
| 2026-05-04 05:23 | -33.81774 | 149.28334 | 31967 ft | 452 kts | 265° |
| 2026-05-04 05:23 | -33.82325 | 149.24619 | 32014 ft | 447 kts | 265° |
| 2026-05-04 05:23 | -33.83403 | 149.17279 | 32019 ft | 448 kts | 265° |
| 2026-05-04 05:24 | -33.84479 | 149.09953 | 32024 ft | 446 kts | 265° |
| 2026-05-04 05:24 | -33.85559 | 149.02554 | 32039 ft | 446 kts | 266° |
| 2026-05-04 05:25 | -33.86619 | 148.95259 | 32033 ft | 445 kts | 266° |
| 2026-05-04 05:25 | -33.87665 | 148.88031 | 32033 ft | 445 kts | 266° |
| 2026-05-04 05:26 | -33.88725 | 148.80681 | 32035 ft | 445 kts | 266° |
| 2026-05-04 05:26 | -33.89777 | 148.73351 | 32037 ft | 443 kts | 266° |
| 2026-05-04 05:28 | -33.93655 | 148.46021 | 32061 ft | 451 kts | 266° |
| 2026-05-04 05:29 | -33.94720 | 148.38444 | 32058 ft | 466 kts | 266° |
| 2026-05-04 05:29 | -33.95810 | 148.30679 | 32044 ft | 469 kts | 266° |
| 2026-05-04 05:31 | -34.00086 | 147.99735 | 32049 ft | 467 kts | 266° |
| 2026-05-04 05:32 | -34.01132 | 147.92070 | 32057 ft | 467 kts | 266° |
| 2026-05-04 05:33 | -34.02622 | 147.81092 | 32045 ft | 465 kts | 267° |
| 2026-05-04 05:33 | -34.03659 | 147.73420 | 32045 ft | 465 kts | 267° |
| 2026-05-04 05:34 | -34.04150 | 147.69770 | 32040 ft | 465 kts | 267° |
| 2026-05-04 05:34 | -34.05176 | 147.62111 | 32039 ft | 465 kts | 267° |
| 2026-05-04 05:35 | -34.06205 | 147.54394 | 32040 ft | 464 kts | 267° |
| 2026-05-04 05:35 | -34.07222 | 147.46724 | 32037 ft | 465 kts | 267° |
| 2026-05-04 05:36 | -34.08238 | 147.39041 | 32039 ft | 464 kts | 267° |
| 2026-05-04 05:36 | -34.09246 | 147.31365 | 32035 ft | 464 kts | 267° |
| 2026-05-04 05:37 | -34.10256 | 147.23639 | 32034 ft | 463 kts | 268° |
| 2026-05-04 05:37 | -34.11248 | 147.16009 | 32028 ft | 463 kts | 268° |
| 2026-05-04 05:38 | -34.12743 | 147.04446 | 32034 ft | 464 kts | 268° |
| 2026-05-04 05:38 | -34.13727 | 146.96783 | 32033 ft | 464 kts | 268° |
| 2026-05-04 05:39 | -34.15196 | 146.85287 | 32025 ft | 459 kts | 268° |
| 2026-05-04 05:40 | -34.16638 | 146.73896 | 32025 ft | 458 kts | 268° |
| 2026-05-04 05:40 | -34.17599 | 146.66254 | 32029 ft | 458 kts | 268° |
| 2026-05-04 05:41 | -34.18551 | 146.58656 | 32028 ft | 459 kts | 268° |
| 2026-05-04 05:41 | -34.19498 | 146.51057 | 32031 ft | 458 kts | 268° |
| 2026-05-04 05:42 | -34.20439 | 146.43461 | 32031 ft | 458 kts | 268° |
| 2026-05-04 05:42 | -34.21380 | 146.35827 | 32030 ft | 457 kts | 268° |
| 2026-05-04 05:43 | -34.22309 | 146.28255 | 32030 ft | 456 kts | 268° |
| 2026-05-04 05:45 | -34.26022 | 145.97887 | 32023 ft | 456 kts | 268° |
| 2026-05-04 05:47 | -34.29730 | 145.67649 | 32020 ft | 455 kts | 268° |
| 2026-05-04 05:47 | -34.30643 | 145.60096 | 32021 ft | 457 kts | 268° |
| 2026-05-04 05:48 | -34.31565 | 145.52452 | 32013 ft | 457 kts | 268° |
| 2026-05-04 05:48 | -34.32474 | 145.44855 | 32014 ft | 458 kts | 268° |
| 2026-05-04 05:49 | -34.33385 | 145.37212 | 32015 ft | 457 kts | 268° |
| 2026-05-04 05:49 | -34.34284 | 145.29620 | 32020 ft | 457 kts | 268° |
| 2026-05-04 05:51 | -34.37708 | 145.00343 | 32011 ft | 460 kts | 268° |
| 2026-05-04 05:52 | -34.38590 | 144.92687 | 32010 ft | 461 kts | 267° |
| 2026-05-04 05:52 | -34.39476 | 144.84977 | 32006 ft | 460 kts | 268° |
| 2026-05-04 05:54 | -34.42955 | 144.54209 | 32007 ft | 462 kts | 267° |
| 2026-05-04 05:55 | -34.43813 | 144.46495 | 32011 ft | 464 kts | 266° |
| 2026-05-04 05:55 | -34.44672 | 144.38758 | 32009 ft | 464 kts | 267° |
| 2026-05-04 05:56 | -34.45527 | 144.30984 | 32011 ft | 464 kts | 267° |
| 2026-05-04 05:56 | -34.46375 | 144.23245 | 32002 ft | 464 kts | 266° |
| 2026-05-04 05:57 | -34.47218 | 144.15504 | 32005 ft | 465 kts | 266° |
| 2026-05-04 05:57 | -34.48059 | 144.07734 | 32003 ft | 463 kts | 266° |
| 2026-05-04 05:58 | -34.48890 | 144.00000 | 32003 ft | 464 kts | 266° |
| 2026-05-04 05:58 | -34.49718 | 143.92258 | 32003 ft | 464 kts | 266° |
| 2026-05-04 05:59 | -34.50545 | 143.84470 | 32001 ft | 464 kts | 266° |
| 2026-05-04 05:59 | -34.51360 | 143.76753 | 32002 ft | 464 kts | 266° |
| 2026-05-04 06:00 | -34.52173 | 143.69008 | 32005 ft | 463 kts | 266° |
| 2026-05-04 06:00 | -34.52982 | 143.61253 | 32007 ft | 462 kts | 266° |
| 2026-05-04 06:01 | -34.53782 | 143.53528 | 32007 ft | 462 kts | 266° |
| 2026-05-04 06:03 | -34.56942 | 143.22551 | 31998 ft | 462 kts | 266° |
| 2026-05-04 06:05 | -34.60401 | 142.87696 | 32005 ft | 464 kts | 266° |
| 2026-05-04 06:06 | -34.61157 | 142.79934 | 32019 ft | 464 kts | 266° |
| 2026-05-04 06:06 | -34.61911 | 142.72151 | 32005 ft | 461 kts | 266° |
| 2026-05-04 06:07 | -34.62654 | 142.64420 | 32005 ft | 461 kts | 266° |
| 2026-05-04 06:07 | -34.63391 | 142.56710 | 32006 ft | 462 kts | 266° |
| 2026-05-04 06:08 | -34.64123 | 142.48934 | 32003 ft | 462 kts | 266° |
| 2026-05-04 06:08 | -34.64843 | 142.41208 | 32004 ft | 462 kts | 266° |
| 2026-05-04 06:09 | -34.65561 | 142.33469 | 32007 ft | 462 kts | 266° |
| 2026-05-04 06:11 | -34.68380 | 142.02499 | 32006 ft | 461 kts | 265° |
| 2026-05-04 06:13 | -34.71123 | 141.71501 | 32009 ft | 461 kts | 265° |
| 2026-05-04 06:14 | -34.73452 | 141.44429 | 32010 ft | 460 kts | 265° |
| 2026-05-04 06:15 | -34.74063 | 141.37209 | 32010 ft | 459 kts | 265° |